createdAt,value
2022-12-24T00:01:40.795Z,1.53
2022-12-24T00:04:08.303Z,1.40
2022-12-24T00:06:36.091Z,1.57
2022-12-24T00:09:04.112Z,1.30
2022-12-24T00:11:31.367Z,1.47
2022-12-24T00:13:58.776Z,1.53
2022-12-24T00:16:26.124Z,1.40
2022-12-24T00:18:54.022Z,1.57
2022-12-24T00:21:21.389Z,1.40
2022-12-24T00:23:48.647Z,1.40
2022-12-24T00:26:15.932Z,1.60
2022-12-24T00:28:43.318Z,1.47
2022-12-24T00:31:15.200Z,1.50
2022-12-24T00:33:42.983Z,1.40
2022-12-24T00:36:10.347Z,1.30
2022-12-24T00:38:37.826Z,1.40
2022-12-24T00:41:06.482Z,1.57
2022-12-24T00:43:33.873Z,1.40
2022-12-24T00:46:01.176Z,1.63
2022-12-24T00:48:28.414Z,1.47
2022-12-24T00:50:55.723Z,1.67
2022-12-24T00:53:23.145Z,1.50
2022-12-24T00:55:50.610Z,1.60
2022-12-24T00:58:17.870Z,1.43
2022-12-24T01:00:45.144Z,1.37
2022-12-24T01:03:12.614Z,1.37
2022-12-24T01:05:40.139Z,1.60
2022-12-24T01:08:07.459Z,1.70
2022-12-24T01:10:34.778Z,1.70
2022-12-24T01:13:03.190Z,1.93
2022-12-24T01:15:30.636Z,1.80
2022-12-24T01:17:59.080Z,1.87
2022-12-24T01:20:31.409Z,1.53
2022-12-24T01:22:58.684Z,2.40
2022-12-24T01:25:25.859Z,1.60
2022-12-24T01:27:53.172Z,1.87
2022-12-24T01:30:20.757Z,1.60
2022-12-24T01:32:48.041Z,1.40
2022-12-24T01:35:15.352Z,1.40
2022-12-24T01:37:43.526Z,1.87
2022-12-24T01:40:32.497Z,2.07
2022-12-24T01:43:18.612Z,1.70
2022-12-24T01:45:50.982Z,1.67
2022-12-24T01:48:20.926Z,1.60
2022-12-24T01:50:49.078Z,2.10
2022-12-24T01:53:16.514Z,2.30
2022-12-24T01:55:45.217Z,1.67
2022-12-24T01:58:14.644Z,2.10
2022-12-24T02:00:42.051Z,1.73
2022-12-24T02:03:09.480Z,1.90
2022-12-24T02:05:48.935Z,2.20
2022-12-24T02:08:16.903Z,1.97
2022-12-24T02:10:44.492Z,1.80
2022-12-24T02:13:12.044Z,2.00
2022-12-24T02:15:59.962Z,2.30
2022-12-24T02:18:33.868Z,1.60
2022-12-24T02:21:07.153Z,1.80
2022-12-24T02:23:46.630Z,1.97
2022-12-24T02:26:19.667Z,1.87
2022-12-24T02:28:56.315Z,1.80
2022-12-24T02:31:46.591Z,1.80
2022-12-24T02:34:13.892Z,1.70
2022-12-24T02:36:59.135Z,2.10
2022-12-24T02:39:31.339Z,1.70
2022-12-24T02:42:08.775Z,1.63
2022-12-24T02:44:38.987Z,1.40
2022-12-24T02:47:07.288Z,1.50
2022-12-24T02:49:35.703Z,1.33
2022-12-24T02:52:02.956Z,1.70
2022-12-24T02:54:30.659Z,1.37
2022-12-24T02:57:00.847Z,1.40
2022-12-24T02:59:34.370Z,1.73
2022-12-24T03:02:04.898Z,1.70
2022-12-24T03:04:44.332Z,1.50
2022-12-24T03:07:11.651Z,1.80
2022-12-24T03:09:38.876Z,1.33
2022-12-24T03:12:12.791Z,1.90
2022-12-24T03:14:41.165Z,1.50
2022-12-24T03:17:09.585Z,1.73
2022-12-24T03:19:37.078Z,2.00
2022-12-24T03:22:08.249Z,1.73
2022-12-24T03:24:35.739Z,1.53
2022-12-24T03:27:03.341Z,1.47
2022-12-24T03:29:30.598Z,1.50
2022-12-24T03:32:00.823Z,1.80
2022-12-24T03:34:28.249Z,1.77
2022-12-24T03:36:55.919Z,1.53
2022-12-24T03:39:23.432Z,1.67
2022-12-24T03:41:50.702Z,1.83
2022-12-24T03:44:18.024Z,1.60
2022-12-24T03:46:45.256Z,1.50
2022-12-24T03:49:12.594Z,1.30
2022-12-24T03:51:39.803Z,1.27
2022-12-24T03:54:07.063Z,1.93
2022-12-24T03:56:34.399Z,1.40
2022-12-24T03:59:01.630Z,1.30
2022-12-24T04:01:29.051Z,1.67
2022-12-24T04:03:56.465Z,1.33
2022-12-24T04:06:23.706Z,1.70
2022-12-24T04:08:50.942Z,1.43
2022-12-24T04:11:18.706Z,1.67
2022-12-24T04:13:46.417Z,1.60
2022-12-24T04:16:15.077Z,1.47
2022-12-24T04:18:42.562Z,1.40
2022-12-24T04:21:10.268Z,1.37
2022-12-24T04:23:38.725Z,1.40
2022-12-24T04:26:06.856Z,1.20
2022-12-24T04:28:34.784Z,1.43
2022-12-24T04:31:06.964Z,1.50
2022-12-24T04:33:34.394Z,1.40
2022-12-24T04:36:02.646Z,1.17
2022-12-24T04:38:30.263Z,1.50
2022-12-24T04:41:03.639Z,1.40
2022-12-24T04:43:31.200Z,1.60
2022-12-24T04:46:04.945Z,1.40
2022-12-24T04:48:32.328Z,2.03
2022-12-24T04:51:02.137Z,1.53
2022-12-24T04:53:29.506Z,1.67
2022-12-24T04:55:56.823Z,1.57
2022-12-24T04:58:24.304Z,1.50
2022-12-24T05:00:51.622Z,1.90
2022-12-24T05:03:19.040Z,1.50
2022-12-24T05:05:46.382Z,1.67
2022-12-24T05:08:13.916Z,1.90
2022-12-24T05:10:41.436Z,1.83
2022-12-24T05:13:08.776Z,1.40
2022-12-24T05:15:36.220Z,1.60
2022-12-24T05:18:03.499Z,1.47
2022-12-24T05:20:30.742Z,1.97
2022-12-24T05:23:16.471Z,1.60
2022-12-24T05:26:02.202Z,1.40
2022-12-24T05:28:29.458Z,1.73
2022-12-24T05:30:56.805Z,1.73
2022-12-24T05:33:24.292Z,1.80
2022-12-24T05:35:52.394Z,1.70
2022-12-24T05:38:19.747Z,2.00
2022-12-24T05:40:47.902Z,1.90
2022-12-24T05:43:15.290Z,1.50
2022-12-24T05:45:42.534Z,1.80
2022-12-24T05:48:09.796Z,1.63
2022-12-24T05:50:37.325Z,1.90
2022-12-24T05:53:05.836Z,1.37
2022-12-24T05:55:33.084Z,1.90
2022-12-24T05:58:00.467Z,1.80
2022-12-24T06:00:28.197Z,1.30
2022-12-24T06:02:55.701Z,1.83
2022-12-24T06:05:22.991Z,1.87
2022-12-24T06:07:50.362Z,1.67
2022-12-24T06:10:17.709Z,1.90
2022-12-24T06:12:44.930Z,1.60
2022-12-24T06:15:12.151Z,1.70
2022-12-24T06:17:39.451Z,1.93
2022-12-24T06:20:07.217Z,1.90
2022-12-24T06:22:34.578Z,1.70
2022-12-24T06:25:02.092Z,1.80
2022-12-24T06:27:29.407Z,1.80
2022-12-24T06:29:56.614Z,1.90
2022-12-24T06:32:23.871Z,1.77
2022-12-24T06:34:51.188Z,2.03
2022-12-24T06:37:18.603Z,2.03
2022-12-24T06:39:46.568Z,1.57
2022-12-24T06:42:14.599Z,1.90
2022-12-24T06:44:41.855Z,1.70
2022-12-24T06:47:09.070Z,1.50
2022-12-24T06:49:36.390Z,2.00
2022-12-24T06:52:03.605Z,2.10
2022-12-24T06:54:30.818Z,1.70
2022-12-24T06:56:58.193Z,1.63
2022-12-24T06:59:25.362Z,1.50
2022-12-24T07:01:52.910Z,1.50
2022-12-24T07:04:20.883Z,1.70
2022-12-24T07:06:48.288Z,1.77
2022-12-24T07:09:15.539Z,1.83
2022-12-24T07:11:42.811Z,1.70
2022-12-24T07:14:10.211Z,1.70
2022-12-24T07:16:37.548Z,1.60
2022-12-24T07:19:04.895Z,1.80
2022-12-24T07:21:32.235Z,1.90
2022-12-24T07:23:59.493Z,2.60
2022-12-24T07:26:26.764Z,4.27
2022-12-24T07:28:54.309Z,1.60
2022-12-24T07:31:21.642Z,1.60
2022-12-24T07:33:48.990Z,2.20
2022-12-24T07:36:20.711Z,1.90
2022-12-24T07:38:48.364Z,2.00
2022-12-24T07:41:15.943Z,2.00
2022-12-24T07:43:43.573Z,1.80
2022-12-24T07:46:10.951Z,1.77
2022-12-24T07:48:38.253Z,1.83
2022-12-24T07:51:05.669Z,1.97
2022-12-24T07:53:33.190Z,2.13
2022-12-24T07:56:00.526Z,2.23
2022-12-24T07:58:28.102Z,2.00
2022-12-24T08:00:59.325Z,1.90
2022-12-24T08:03:26.695Z,1.83
2022-12-24T08:05:54.123Z,1.90
2022-12-24T08:08:21.764Z,1.87
2022-12-24T08:10:49.313Z,1.67
2022-12-24T08:13:17.321Z,1.70
2022-12-24T08:15:44.720Z,1.83
2022-12-24T08:18:12.515Z,1.87
2022-12-24T08:20:40.647Z,1.90
2022-12-24T08:23:08.458Z,1.40
2022-12-24T08:25:35.880Z,1.43
2022-12-24T08:28:03.097Z,1.73
2022-12-24T08:30:30.441Z,1.77
2022-12-24T08:32:57.751Z,1.60
2022-12-24T08:35:24.983Z,1.80
2022-12-24T08:37:52.365Z,1.53
2022-12-24T08:40:19.611Z,1.60
2022-12-24T08:42:46.935Z,1.80
2022-12-24T08:45:14.348Z,1.70
2022-12-24T08:47:41.611Z,1.80
2022-12-24T08:50:09.889Z,1.83
2022-12-24T08:52:37.201Z,1.60
2022-12-24T08:55:04.831Z,1.80
2022-12-24T08:57:32.186Z,2.10
2022-12-24T08:59:59.570Z,2.20
2022-12-24T09:02:26.923Z,1.90
2022-12-24T09:04:54.282Z,1.80
2022-12-24T09:07:21.733Z,1.90
2022-12-24T09:09:49.047Z,2.40
2022-12-24T09:12:16.348Z,1.90
2022-12-24T09:14:43.711Z,2.17
2022-12-24T09:17:11.009Z,1.80
2022-12-24T09:19:38.215Z,1.70
2022-12-24T09:22:05.564Z,2.23
2022-12-24T09:24:33.003Z,2.00
2022-12-24T09:27:01.943Z,2.33
2022-12-24T09:29:29.411Z,2.70
2022-12-24T09:31:57.847Z,2.30
2022-12-24T09:34:30.342Z,2.10
2022-12-24T09:36:58.693Z,1.90
2022-12-24T09:39:26.367Z,1.90
2022-12-24T09:41:56.397Z,1.90
2022-12-24T09:44:42.078Z,2.17
2022-12-24T09:47:19.869Z,2.23
2022-12-24T09:49:49.062Z,1.90
2022-12-24T09:52:20.383Z,5.70
2022-12-24T09:54:50.947Z,2.73
2022-12-24T09:57:24.924Z,2.00
2022-12-24T09:59:52.445Z,2.00
2022-12-24T10:02:20.676Z,1.73
2022-12-24T10:04:48.962Z,2.00
2022-12-24T10:07:22.434Z,2.27
2022-12-24T10:09:58.968Z,2.33
2022-12-24T10:12:49.533Z,2.10
2022-12-24T10:15:43.354Z,1.90
2022-12-24T10:18:16.907Z,2.20
2022-12-24T10:20:57.565Z,1.90
2022-12-24T10:23:41.266Z,2.17
2022-12-24T10:26:16.143Z,2.30
2022-12-24T10:28:54.619Z,2.17
2022-12-24T10:31:25.753Z,2.30
2022-12-24T10:33:59.433Z,2.47
2022-12-24T10:36:29.053Z,2.70
2022-12-24T10:38:56.847Z,2.20
2022-12-24T10:41:25.586Z,2.27
2022-12-24T10:43:53.162Z,2.10
2022-12-24T10:46:32.237Z,2.20
2022-12-24T10:49:01.642Z,2.20
2022-12-24T10:51:44.537Z,1.90
2022-12-24T10:54:20.879Z,2.23
2022-12-24T10:56:56.914Z,1.73
2022-12-24T10:59:25.707Z,1.90
2022-12-24T11:01:54.487Z,2.57
2022-12-24T11:04:23.569Z,2.40
2022-12-24T11:06:57.916Z,2.00
2022-12-24T11:09:25.354Z,2.00
2022-12-24T11:11:52.880Z,2.00
2022-12-24T11:14:21.649Z,2.10
2022-12-24T11:16:50.449Z,1.73
2022-12-24T11:19:19.251Z,1.90
2022-12-24T11:21:46.591Z,1.87
2022-12-24T11:24:13.876Z,1.60
2022-12-24T11:26:42.479Z,1.83
2022-12-24T11:29:14.996Z,2.30
2022-12-24T11:31:43.091Z,5.60
2022-12-24T11:34:30.776Z,2.00
2022-12-24T11:37:14.632Z,1.90
2022-12-24T11:39:45.608Z,1.90
2022-12-24T11:42:45.495Z,1.67
2022-12-24T11:45:24.369Z,1.63
2022-12-24T11:47:52.227Z,1.70
2022-12-24T11:50:35.547Z,1.30
2022-12-24T11:53:08.253Z,1.57
2022-12-24T11:55:44.730Z,1.60
2022-12-24T11:58:15.092Z,1.63
2022-12-24T12:00:42.662Z,1.73
2022-12-24T12:03:20.202Z,1.57
2022-12-24T12:05:47.621Z,2.30
2022-12-24T12:08:18.140Z,1.43
2022-12-24T12:10:46.740Z,1.57
2022-12-24T12:13:16.473Z,1.70
2022-12-24T12:15:50.309Z,1.53
2022-12-24T12:18:23.613Z,1.70
2022-12-24T12:20:57.063Z,1.60
2022-12-24T12:23:30.340Z,1.67
2022-12-24T12:26:09.838Z,1.93
2022-12-24T12:28:46.369Z,1.70
2022-12-24T12:31:32.604Z,1.50
2022-12-24T12:34:03.621Z,1.87
2022-12-24T12:36:59.196Z,1.67
2022-12-24T12:39:26.488Z,2.03
2022-12-24T12:42:12.635Z,1.70
2022-12-24T12:44:46.995Z,2.00
2022-12-24T12:47:17.100Z,1.80
2022-12-24T12:50:03.378Z,1.90
2022-12-24T12:52:54.806Z,2.27
2022-12-24T12:55:42.981Z,1.50
2022-12-24T12:58:30.753Z,1.70
2022-12-24T13:01:01.825Z,1.87
2022-12-24T13:03:44.298Z,1.80
2022-12-24T13:06:11.572Z,2.00
2022-12-24T13:08:47.857Z,1.80
2022-12-24T13:11:18.224Z,1.53
2022-12-24T13:13:48.586Z,1.80
2022-12-24T13:16:21.702Z,2.20
2022-12-24T13:18:52.090Z,1.97
2022-12-24T13:21:22.033Z,1.77
2022-12-24T13:23:50.108Z,1.80
2022-12-24T13:26:18.503Z,1.80
2022-12-24T13:28:45.842Z,1.77
2022-12-24T13:31:24.256Z,1.87
2022-12-24T13:33:56.992Z,1.80
2022-12-24T13:36:24.526Z,1.57
2022-12-24T13:38:52.663Z,1.87
2022-12-24T13:41:40.646Z,1.70
2022-12-24T13:44:13.446Z,1.93
2022-12-24T13:46:56.875Z,1.70
2022-12-24T13:49:44.043Z,1.67
2022-12-24T13:52:11.453Z,1.97
2022-12-24T13:54:47.937Z,1.80
2022-12-24T13:57:38.498Z,1.80
2022-12-24T14:00:29.333Z,1.83
2022-12-24T14:03:14.859Z,1.57
2022-12-24T14:05:46.451Z,1.90
2022-12-24T14:08:16.951Z,2.17
2022-12-24T14:10:45.945Z,1.70
2022-12-24T14:13:39.283Z,2.07
2022-12-24T14:16:06.738Z,1.60
2022-12-24T14:18:44.922Z,1.93
2022-12-24T14:21:17.482Z,1.90
2022-12-24T14:23:47.891Z,1.70
2022-12-24T14:26:17.274Z,1.77
2022-12-24T14:28:47.146Z,1.87
2022-12-24T14:31:15.840Z,1.83
2022-12-24T14:33:43.566Z,1.60
2022-12-24T14:36:11.325Z,2.17
2022-12-24T14:38:41.127Z,2.10
2022-12-24T14:41:30.965Z,1.93
2022-12-24T14:44:11.293Z,1.63
2022-12-24T14:46:58.860Z,1.47
2022-12-24T14:49:26.209Z,1.83
2022-12-24T14:51:59.635Z,1.50
2022-12-24T14:54:32.582Z,1.80
2022-12-24T14:57:12.212Z,1.73
2022-12-24T14:59:45.689Z,2.37
2022-12-24T15:02:31.783Z,2.10
2022-12-24T15:05:12.939Z,7.57
2022-12-24T15:07:47.269Z,8.73
2022-12-24T15:10:42.066Z,2.00
2022-12-24T15:13:37.040Z,2.00
2022-12-24T15:16:06.288Z,1.73
2022-12-24T15:18:35.053Z,1.63
2022-12-24T15:21:06.875Z,1.70
2022-12-24T15:23:36.510Z,1.50
2022-12-24T15:26:24.311Z,2.00
2022-12-24T15:28:56.531Z,1.60
2022-12-24T15:31:28.519Z,1.90
2022-12-24T15:33:57.053Z,1.90
2022-12-24T15:36:32.156Z,2.47
2022-12-24T15:39:01.547Z,1.77
2022-12-24T15:41:30.881Z,2.23
2022-12-24T15:44:02.196Z,1.90
2022-12-24T15:46:30.694Z,1.83
2022-12-24T15:48:59.426Z,2.00
2022-12-24T15:51:28.285Z,2.50
2022-12-24T15:54:03.109Z,1.97
2022-12-24T15:56:36.711Z,2.00
2022-12-24T15:59:17.799Z,2.00
2022-12-24T16:01:46.003Z,2.03
2022-12-24T16:04:17.621Z,2.60
2022-12-24T16:07:07.925Z,1.70
2022-12-24T16:09:47.905Z,1.97
2022-12-24T16:12:25.731Z,2.00
2022-12-24T16:14:56.075Z,1.90
2022-12-24T16:17:25.095Z,1.90
2022-12-24T16:19:54.636Z,2.80
2022-12-24T16:22:31.911Z,6.77
2022-12-24T16:25:19.156Z,3.37
2022-12-24T16:27:46.388Z,2.30
2022-12-24T16:30:13.733Z,2.23
2022-12-24T16:32:44.679Z,1.80
2022-12-24T16:35:21.007Z,2.10
2022-12-24T16:37:48.271Z,2.40
2022-12-24T16:40:20.599Z,2.57
2022-12-24T16:43:08.281Z,2.60
2022-12-24T16:45:37.225Z,3.10
2022-12-24T16:48:07.289Z,2.27
2022-12-24T16:50:35.002Z,3.83
2022-12-24T16:53:02.367Z,3.97
2022-12-24T16:55:30.009Z,3.80
2022-12-24T16:57:57.613Z,3.30
2022-12-24T17:00:25.619Z,2.23
2022-12-24T17:02:53.081Z,2.43
2022-12-24T17:05:23.704Z,2.80
2022-12-24T17:07:51.372Z,2.20
2022-12-24T17:10:18.706Z,2.40
2022-12-24T17:12:45.946Z,10.57
2022-12-24T17:15:13.400Z,5.53
2022-12-24T17:17:40.677Z,6.83
2022-12-24T17:20:08.233Z,3.07
2022-12-24T17:22:36.565Z,2.20
2022-12-24T17:25:04.262Z,2.33
2022-12-24T17:27:31.535Z,2.00
2022-12-24T17:29:59.081Z,1.90
2022-12-24T17:32:27.551Z,2.10
2022-12-24T17:34:54.839Z,2.20
2022-12-24T17:37:22.174Z,2.20
2022-12-24T17:39:49.437Z,2.10
2022-12-24T17:42:17.103Z,2.10
2022-12-24T17:44:44.559Z,3.03
2022-12-24T17:47:12.206Z,3.03
2022-12-24T17:49:39.595Z,2.30
2022-12-24T17:52:06.957Z,2.80
2022-12-24T17:54:34.232Z,2.47
2022-12-24T17:57:01.830Z,2.60
2022-12-24T17:59:29.067Z,2.50
2022-12-24T18:01:56.450Z,2.87
2022-12-24T18:04:23.899Z,2.80
2022-12-24T18:06:53.849Z,2.60
2022-12-24T18:09:45.890Z,3.00
2022-12-24T18:12:13.941Z,3.20
2022-12-24T18:14:41.208Z,3.20
2022-12-24T18:17:08.485Z,4.47
2022-12-24T18:19:35.794Z,5.60
2022-12-24T18:22:03.121Z,4.20
2022-12-24T18:24:30.479Z,3.83
2022-12-24T18:26:57.883Z,3.47
2022-12-24T18:29:25.175Z,3.83
2022-12-24T18:31:52.778Z,3.83
2022-12-24T18:34:20.192Z,3.83
2022-12-24T18:36:54.580Z,3.77
2022-12-24T18:39:22.500Z,4.23
2022-12-24T18:41:49.943Z,3.60
2022-12-24T18:44:24.283Z,3.93
2022-12-24T18:46:52.666Z,3.73
2022-12-24T18:49:20.144Z,4.00
2022-12-24T18:51:47.447Z,3.73
2022-12-24T18:54:15.315Z,4.70
2022-12-24T18:56:42.645Z,4.30
2022-12-24T18:59:10.056Z,4.97
2022-12-24T19:01:37.542Z,5.30
2022-12-24T19:04:04.983Z,4.47
2022-12-24T19:06:32.333Z,5.37
2022-12-24T19:09:01.199Z,5.00
2022-12-24T19:11:33.332Z,5.60
2022-12-24T19:14:01.014Z,5.60
2022-12-24T19:16:29.694Z,6.13
2022-12-24T19:18:57.259Z,5.77
2022-12-24T19:21:24.553Z,11.07
2022-12-24T19:23:51.970Z,5.70
2022-12-24T19:26:20.280Z,5.63
2022-12-24T19:28:48.116Z,5.60
2022-12-24T19:31:16.965Z,5.67
2022-12-24T19:33:45.909Z,7.87
2022-12-24T19:36:15.200Z,5.40
2022-12-24T19:38:42.810Z,6.37
2022-12-24T19:41:13.448Z,6.13
2022-12-24T19:43:41.499Z,6.37
2022-12-24T19:46:09.549Z,8.27
2022-12-24T19:48:37.378Z,6.40
2022-12-24T19:51:05.626Z,6.77
2022-12-24T19:53:33.205Z,7.40
2022-12-24T19:56:00.466Z,6.07
2022-12-24T20:01:18.994Z,5.27
2022-12-24T20:03:47.309Z,6.53
2022-12-24T20:06:15.938Z,7.97
2022-12-24T20:08:43.228Z,3.90
2022-12-24T20:11:12.331Z,3.67
2022-12-24T20:13:40.319Z,3.63
2022-12-24T20:16:08.598Z,4.30
2022-12-24T20:18:36.396Z,5.00
2022-12-24T20:21:04.733Z,3.30
2022-12-24T20:23:32.495Z,4.13
2022-12-24T20:26:00.803Z,4.50
2022-12-24T20:28:29.292Z,10.83
2022-12-24T20:30:57.066Z,2.50
2022-12-24T20:33:24.599Z,2.87
2022-12-24T20:35:52.235Z,3.70
2022-12-24T20:38:19.674Z,3.00
2022-12-24T20:40:47.503Z,3.07
2022-12-24T20:43:16.077Z,2.67
2022-12-24T20:45:49.560Z,2.87
2022-12-24T20:48:17.204Z,3.00
2022-12-24T20:50:44.564Z,2.70
2022-12-24T20:53:12.331Z,3.07
2022-12-24T20:55:40.767Z,3.10
2022-12-24T20:58:08.138Z,3.97
2022-12-24T21:00:36.676Z,4.00
2022-12-24T21:03:04.213Z,5.40
2022-12-24T21:05:31.606Z,5.07
2022-12-24T21:07:58.903Z,5.23
2022-12-24T21:10:32.305Z,4.80
2022-12-24T21:13:01.643Z,6.20
2022-12-24T21:15:33.588Z,10.83
2022-12-24T21:18:01.640Z,6.47
2022-12-24T21:20:30.941Z,7.10
2022-12-24T21:23:00.965Z,6.30
2022-12-24T21:25:29.327Z,6.33
2022-12-24T21:27:56.697Z,6.27
2022-12-24T21:30:24.829Z,5.63
2022-12-24T21:32:52.403Z,16.43
2022-12-24T21:35:19.860Z,35.40
2022-12-24T21:37:47.184Z,11.00
2022-12-24T21:40:14.383Z,9.43
2022-12-24T21:42:41.760Z,8.30
2022-12-24T21:45:09.532Z,12.37
2022-12-24T21:47:38.155Z,18.00
2022-12-24T21:50:29.968Z,21.00
2022-12-24T21:53:17.948Z,14.00
2022-12-24T21:55:45.283Z,20.70
2022-12-24T21:58:12.643Z,21.00
2022-12-24T22:00:40.060Z,12.43
2022-12-24T22:03:07.452Z,10.70
2022-12-24T22:05:35.584Z,7.83
2022-12-24T22:08:21.799Z,6.80
2022-12-24T22:11:07.727Z,7.70
2022-12-24T22:13:35.033Z,8.13
2022-12-24T22:16:02.306Z,8.17
2022-12-24T22:18:29.581Z,8.03
2022-12-24T22:20:57.110Z,7.50
2022-12-24T22:23:24.338Z,7.83
2022-12-24T22:25:52.209Z,6.77
2022-12-24T22:28:20.033Z,8.30
2022-12-24T22:30:47.393Z,7.23
2022-12-24T22:33:14.685Z,7.50
2022-12-24T22:35:42.362Z,10.70
2022-12-24T22:38:10.372Z,10.27
2022-12-24T22:40:40.104Z,9.17
2022-12-24T22:43:07.439Z,8.10
2022-12-24T22:45:34.769Z,9.03
2022-12-24T22:48:02.701Z,8.00
2022-12-24T22:50:30.045Z,8.13
2022-12-24T22:52:57.275Z,7.60
2022-12-24T22:55:25.289Z,8.80
2022-12-24T22:57:52.513Z,8.80
2022-12-24T23:00:40.016Z,9.33
2022-12-24T23:03:07.971Z,9.83
2022-12-24T23:05:35.421Z,10.40
2022-12-24T23:08:02.699Z,8.20
2022-12-24T23:10:29.916Z,8.43
2022-12-24T23:13:15.980Z,8.10
2022-12-24T23:15:43.459Z,9.10
2022-12-24T23:18:11.014Z,9.33
2022-12-24T23:20:39.519Z,9.43
2022-12-24T23:23:06.769Z,105.80
2022-12-24T23:25:34.081Z,87.40
2022-12-24T23:28:01.377Z,9.80
2022-12-24T23:30:28.651Z,7.00
2022-12-24T23:32:56.015Z,8.37
2022-12-24T23:35:23.274Z,8.27
2022-12-24T23:37:50.569Z,7.93
2022-12-24T23:40:17.893Z,8.63
2022-12-24T23:42:45.223Z,9.00
2022-12-24T23:47:58.572Z,8.87
2022-12-24T23:50:26.036Z,8.13
2022-12-24T23:52:53.265Z,8.33
2022-12-24T23:55:20.548Z,8.37
2022-12-24T23:57:47.786Z,8.00
